createdAt,value
2018-06-10T00:00:08.762Z,0
2018-06-10T00:01:08.703Z,0
2018-06-10T00:02:08.706Z,0
2018-06-10T00:03:08.676Z,0
2018-06-10T00:04:08.657Z,0
2018-06-10T00:05:08.704Z,0
2018-06-10T00:06:08.682Z,0
2018-06-10T00:07:08.414Z,0
2018-06-10T00:08:08.709Z,0
2018-06-10T00:09:08.160Z,0
2018-06-10T00:10:08.978Z,0
2018-06-10T00:11:08.915Z,0
2018-06-10T00:12:08.428Z,0
2018-06-10T00:13:08.394Z,0
2018-06-10T00:14:08.413Z,0
2018-06-10T00:15:08.402Z,0
2018-06-10T00:16:08.688Z,0
2018-06-10T00:17:08.920Z,0
2018-06-10T00:18:08.904Z,0
2018-06-10T00:19:08.911Z,0
2018-06-10T00:20:08.649Z,0
2018-06-10T00:21:08.912Z,0
2018-06-10T00:22:08.384Z,0
2018-06-10T00:23:08.937Z,0
2018-06-10T00:24:08.609Z,0
2018-06-10T00:25:08.639Z,0
2018-06-10T00:26:08.852Z,0
2018-06-10T00:27:08.648Z,0
2018-06-10T00:28:08.871Z,0
2018-06-10T00:29:08.926Z,0
2018-06-10T00:30:08.640Z,0
2018-06-10T00:31:08.678Z,0
2018-06-10T00:32:08.837Z,0
2018-06-10T00:33:08.886Z,0
2018-06-10T00:34:08.614Z,0
2018-06-10T00:35:08.603Z,0
2018-06-10T00:36:08.593Z,0
2018-06-10T00:37:08.360Z,0
2018-06-10T00:38:08.597Z,0
2018-06-10T00:39:08.102Z,0
2018-06-10T00:40:08.565Z,0
2018-06-10T00:41:08.848Z,0
2018-06-10T00:42:08.552Z,0
2018-06-10T00:43:08.339Z,0
2018-06-10T00:44:08.586Z,0
2018-06-10T00:45:08.601Z,0
2018-06-10T00:46:08.322Z,0
2018-06-10T00:47:08.591Z,0
2018-06-10T00:48:08.538Z,0
2018-06-10T00:49:08.807Z,0
2018-06-10T00:50:08.556Z,0
2018-06-10T00:51:08.833Z,0
2018-06-10T00:52:08.321Z,0
2018-06-10T00:53:08.282Z,0
2018-06-10T00:54:08.541Z,0
2018-06-10T00:55:08.801Z,0
2018-06-10T00:56:08.605Z,0
2018-06-10T00:57:08.780Z,0
2018-06-10T00:58:08.784Z,0
2018-06-10T00:59:08.557Z,0
2018-06-10T01:00:08.009Z,0
2018-06-10T01:01:08.554Z,0
2018-06-10T01:02:08.524Z,0
2018-06-10T01:03:08.558Z,0
2018-06-10T01:04:08.242Z,0
2018-06-10T01:05:08.518Z,0
2018-06-10T01:06:08.250Z,0
2018-06-10T01:07:08.276Z,0
2018-06-10T01:08:08.800Z,0
2018-06-10T01:09:08.518Z,0
2018-06-10T01:10:08.510Z,0
2018-06-10T01:11:08.721Z,0
2018-06-10T01:12:08.516Z,0
2018-06-10T01:13:08.224Z,0
2018-06-10T01:14:08.780Z,0
2018-06-10T01:15:08.482Z,0
2018-06-10T01:16:08.516Z,0
2018-06-10T01:17:08.208Z,0
2018-06-10T01:18:08.753Z,0
2018-06-10T01:19:08.456Z,0
2018-06-10T01:20:08.494Z,0
2018-06-10T01:21:08.477Z,0
2018-06-10T01:22:08.719Z,0
2018-06-10T01:23:08.442Z,0
2018-06-10T01:24:08.231Z,0
2018-06-10T01:25:08.487Z,0
2018-06-10T01:26:07.943Z,0
2018-06-10T01:27:08.424Z,0
2018-06-10T01:28:08.470Z,0
2018-06-10T01:29:08.468Z,0
2018-06-10T01:30:08.211Z,0
2018-06-10T01:31:08.180Z,0
2018-06-10T01:32:08.717Z,0
2018-06-10T01:33:08.152Z,0
2018-06-10T01:34:07.921Z,0
2018-06-10T01:35:08.681Z,0
2018-06-10T01:36:08.699Z,0
2018-06-10T01:37:08.409Z,0
2018-06-10T01:38:08.164Z,0
2018-06-10T01:39:08.680Z,0
2018-06-10T01:40:08.437Z,0
2018-06-10T01:41:08.408Z,0
2018-06-10T01:42:08.396Z,0
2018-06-10T01:43:08.404Z,0
2018-06-10T01:44:08.675Z,0
2018-06-10T01:45:08.646Z,0
2018-06-10T01:46:08.420Z,0
2018-06-10T01:47:07.864Z,0
2018-06-10T01:48:08.413Z,0
2018-06-10T01:49:08.118Z,0
2018-06-10T01:50:08.632Z,0
2018-06-10T01:51:08.131Z,0
2018-06-10T01:52:08.591Z,0
2018-06-10T01:53:08.367Z,0
2018-06-10T01:54:08.104Z,0
2018-06-10T01:55:08.380Z,0
2018-06-10T01:56:08.641Z,0
2018-06-10T01:57:08.598Z,0
2018-06-10T01:58:08.353Z,0
2018-06-10T01:59:08.333Z,0
2018-06-10T02:00:08.633Z,0
2018-06-10T02:01:08.587Z,0
2018-06-10T02:02:08.637Z,0
2018-06-10T02:03:08.323Z,0
2018-06-10T02:04:08.359Z,0
2018-06-10T02:05:08.557Z,0
2018-06-10T02:06:08.622Z,0
2018-06-10T02:07:08.563Z,0
2018-06-10T02:08:08.603Z,0
2018-06-10T02:09:08.328Z,0
2018-06-10T02:10:08.315Z,0
2018-06-10T02:11:08.054Z,0
2018-06-10T02:12:08.279Z,0
2018-06-10T02:13:08.315Z,0
2018-06-10T02:14:08.554Z,0
2018-06-10T02:15:08.328Z,0
2018-06-10T02:16:08.323Z,0
2018-06-10T02:17:08.299Z,0
2018-06-10T02:18:08.320Z,0
2018-06-10T02:19:08.010Z,0
2018-06-10T02:20:08.608Z,0
2018-06-10T02:21:07.995Z,0
2018-06-10T02:22:08.693Z,0
2018-06-10T02:23:08.517Z,0
2018-06-10T02:24:08.554Z,0
2018-06-10T02:25:08.019Z,0
2018-06-10T02:26:08.268Z,0
2018-06-10T02:27:08.241Z,0
2018-06-10T02:28:08.246Z,0
2018-06-10T02:29:08.534Z,0
2018-06-10T02:30:07.999Z,0
2018-06-10T02:31:08.555Z,0
2018-06-10T02:32:08.230Z,0
2018-06-10T02:33:08.518Z,0
2018-06-10T02:34:08.488Z,0
2018-06-10T02:35:08.265Z,0
2018-06-10T02:36:08.470Z,5
2018-06-10T02:37:08.261Z,5
2018-06-10T02:38:08.518Z,5
2018-06-10T02:39:08.501Z,5
2018-06-10T02:40:07.957Z,5
2018-06-10T02:41:08.516Z,5
2018-06-10T02:42:08.507Z,5
2018-06-10T02:43:08.213Z,5
2018-06-10T02:44:08.209Z,5
2018-06-10T02:45:08.501Z,5
2018-06-10T02:46:08.201Z,5
2018-06-10T02:47:08.486Z,5
2018-06-10T02:48:08.435Z,5
2018-06-10T02:49:08.480Z,5
2018-06-10T02:50:08.419Z,10
2018-06-10T02:51:07.994Z,10
2018-06-10T02:52:07.659Z,10
2018-06-10T02:53:07.972Z,10
2018-06-10T02:54:07.927Z,10
2018-06-10T02:55:07.938Z,10
2018-06-10T02:56:07.912Z,15
2018-06-10T02:57:07.905Z,15
2018-06-10T02:58:08.416Z,15
2018-06-10T02:59:08.189Z,15
2018-06-10T03:00:08.189Z,15
2018-06-10T03:01:08.157Z,15
2018-06-10T03:02:07.897Z,15
2018-06-10T03:03:07.873Z,20
2018-06-10T03:04:08.443Z,20
2018-06-10T03:05:08.192Z,20
2018-06-10T03:06:07.891Z,20
2018-06-10T03:07:08.159Z,25
2018-06-10T03:08:08.521Z,25
2018-06-10T03:09:08.176Z,25
2018-06-10T03:10:08.396Z,30
2018-06-10T03:11:07.908Z,30
2018-06-10T03:12:08.357Z,30
2018-06-10T03:13:08.112Z,30
2018-06-10T03:14:08.384Z,35
2018-06-10T03:15:07.918Z,35
2018-06-10T03:16:07.889Z,35
2018-06-10T03:17:08.364Z,40
2018-06-10T03:18:08.115Z,40
2018-06-10T03:19:08.381Z,45
2018-06-10T03:20:07.835Z,45
2018-06-10T03:21:08.372Z,50
2018-06-10T03:22:08.320Z,50
2018-06-10T03:23:07.851Z,50
2018-06-10T03:24:08.327Z,50
2018-06-10T03:25:08.391Z,55
2018-06-10T03:26:08.086Z,55
2018-06-10T03:27:08.356Z,55
2018-06-10T03:28:08.305Z,60
2018-06-10T03:29:08.539Z,60
2018-06-10T03:30:08.080Z,65
2018-06-10T03:31:08.085Z,65
2018-06-10T03:32:08.311Z,65
2018-06-10T03:33:08.334Z,65
2018-06-10T03:34:08.080Z,65
2018-06-10T03:35:08.345Z,70
2018-06-10T03:36:08.044Z,70
2018-06-10T03:37:07.560Z,75
2018-06-10T03:38:08.032Z,80
2018-06-10T03:39:07.558Z,75
2018-06-10T03:40:08.278Z,80
2018-06-10T03:41:08.353Z,85
2018-06-10T03:42:08.300Z,90
2018-06-10T03:43:08.054Z,90
2018-06-10T03:44:07.756Z,95
2018-06-10T03:45:08.294Z,95
2018-06-10T03:46:08.040Z,95
2018-06-10T03:47:08.307Z,95
2018-06-10T03:48:08.315Z,95
2018-06-10T03:49:08.022Z,100
2018-06-10T03:50:07.774Z,105
2018-06-10T03:51:08.001Z,110
2018-06-10T03:52:08.046Z,115
2018-06-10T03:53:08.275Z,120
2018-06-10T03:54:08.043Z,130
2018-06-10T03:55:08.005Z,135
2018-06-10T03:56:08.038Z,140
2018-06-10T03:57:07.992Z,145
2018-06-10T03:58:07.495Z,145
2018-06-10T03:59:08.029Z,150
2018-06-10T04:00:08.228Z,155
2018-06-10T04:01:08.242Z,160
2018-06-10T04:02:08.265Z,170
2018-06-10T04:03:08.267Z,170
2018-06-10T04:04:08.014Z,170
2018-06-10T04:05:08.253Z,170
2018-06-10T04:06:08.007Z,180
2018-06-10T04:07:08.038Z,190
2018-06-10T04:08:08.020Z,165
2018-06-10T04:09:07.466Z,165
2018-06-10T04:10:08.012Z,180
2018-06-10T04:11:08.215Z,185
2018-06-10T04:12:07.751Z,190
2018-06-10T04:13:08.202Z,240
2018-06-10T04:14:08.239Z,260
2018-06-10T04:15:07.963Z,230
2018-06-10T04:16:08.001Z,230
2018-06-10T04:17:07.737Z,255
2018-06-10T04:18:07.975Z,305
2018-06-10T04:19:07.954Z,330
2018-06-10T04:20:08.201Z,295
2018-06-10T04:21:07.984Z,255
2018-06-10T04:22:07.972Z,245
2018-06-10T04:23:07.952Z,245
2018-06-10T04:24:08.254Z,255
2018-06-10T04:25:07.960Z,265
2018-06-10T04:26:08.004Z,270
2018-06-10T04:27:08.206Z,275
2018-06-10T04:28:08.252Z,280
2018-06-10T04:29:07.945Z,285
2018-06-10T04:30:07.968Z,285
2018-06-10T04:31:07.956Z,295
2018-06-10T04:32:08.263Z,320
2018-06-10T04:33:07.991Z,290
2018-06-10T04:34:07.727Z,290
2018-06-10T04:35:08.222Z,285
2018-06-10T04:36:07.951Z,285
2018-06-10T04:37:08.245Z,285
2018-06-10T04:38:08.241Z,285
2018-06-10T04:39:08.275Z,295
2018-06-10T04:40:07.959Z,300
2018-06-10T04:41:07.740Z,325
2018-06-10T04:42:08.211Z,325
2018-06-10T04:43:08.012Z,350
2018-06-10T04:44:07.714Z,360
2018-06-10T04:45:08.022Z,390
2018-06-10T04:46:07.742Z,325
2018-06-10T04:47:08.370Z,375
2018-06-10T04:48:08.221Z,450
2018-06-10T04:49:08.012Z,450
2018-06-10T04:50:08.005Z,520
2018-06-10T04:51:07.728Z,585
2018-06-10T04:52:07.994Z,600
2018-06-10T04:53:08.578Z,615
2018-06-10T04:54:08.272Z,640
2018-06-10T04:55:08.055Z,665
2018-06-10T04:56:07.994Z,685
2018-06-10T04:57:07.784Z,695
2018-06-10T04:58:08.004Z,695
2018-06-10T04:59:08.322Z,515
2018-06-10T05:00:07.808Z,380
2018-06-10T05:01:08.057Z,365
2018-06-10T05:02:08.309Z,345
2018-06-10T05:03:08.309Z,335
2018-06-10T05:04:08.357Z,330
2018-06-10T05:05:08.076Z,330
2018-06-10T05:06:08.077Z,330
2018-06-10T05:07:08.059Z,330
2018-06-10T05:08:08.066Z,335
2018-06-10T05:09:08.354Z,340
2018-06-10T05:10:08.104Z,345
2018-06-10T05:11:08.392Z,350
2018-06-10T05:12:08.337Z,350
2018-06-10T05:13:08.401Z,350
2018-06-10T05:14:08.387Z,355
2018-06-10T05:15:08.110Z,355
2018-06-10T05:16:07.645Z,360
2018-06-10T05:17:08.361Z,370
2018-06-10T05:18:08.149Z,380
2018-06-10T05:19:07.887Z,390
2018-06-10T05:20:08.515Z,405
2018-06-10T05:21:08.174Z,430
2018-06-10T05:22:08.419Z,440
2018-06-10T05:23:08.159Z,470
2018-06-10T05:24:08.149Z,465
2018-06-10T05:25:08.190Z,490
2018-06-10T05:26:08.446Z,500
2018-06-10T05:27:08.230Z,640
2018-06-10T05:28:07.938Z,475
2018-06-10T05:29:08.515Z,465
2018-06-10T05:30:07.927Z,455
2018-06-10T05:31:08.484Z,460
2018-06-10T05:32:07.943Z,465
2018-06-10T05:33:08.520Z,470
2018-06-10T05:34:08.230Z,480
2018-06-10T05:35:08.512Z,485
2018-06-10T05:36:07.971Z,535
2018-06-10T05:37:08.539Z,660
2018-06-10T05:38:08.506Z,940
2018-06-10T05:39:08.540Z,1040
2018-06-10T05:40:08.098Z,1080
2018-06-10T05:41:08.034Z,980
2018-06-10T05:42:08.537Z,1050
2018-06-10T05:43:08.329Z,1095
2018-06-10T05:44:08.532Z,1145
2018-06-10T05:45:08.591Z,1190
2018-06-10T05:46:08.280Z,1225
2018-06-10T05:47:08.590Z,1250
2018-06-10T05:48:08.549Z,1155
2018-06-10T05:49:08.631Z,910
2018-06-10T05:50:08.340Z,1320
2018-06-10T05:51:07.854Z,1310
2018-06-10T05:53:08.596Z,1455
2018-06-10T05:54:08.402Z,1420
2018-06-10T05:55:08.617Z,1405
2018-06-10T05:56:08.685Z,1400
2018-06-10T05:57:08.415Z,1265
2018-06-10T05:58:08.435Z,705
2018-06-10T05:59:08.408Z,650
2018-06-10T06:00:08.686Z,1040
2018-06-10T06:01:08.459Z,1350
2018-06-10T06:02:21.475Z,1445
2018-06-10T06:03:08.767Z,1425
2018-06-10T06:04:08.780Z,1435
2018-06-10T06:06:08.741Z,1160
2018-06-10T06:07:08.278Z,725
2018-06-10T06:08:21.283Z,660
2018-06-10T06:09:08.290Z,600
2018-06-10T06:10:08.292Z,555
2018-06-10T06:11:21.580Z,525
2018-06-10T06:12:08.851Z,520
2018-06-10T06:13:08.628Z,535
2018-06-10T06:14:08.594Z,555
2018-06-10T06:15:21.375Z,580
2018-06-10T06:16:08.612Z,590
2018-06-10T06:17:09.932Z,620
2018-06-10T06:18:08.906Z,645
2018-06-10T06:19:08.465Z,625
2018-06-10T06:20:08.196Z,625
2018-06-10T06:21:08.704Z,745
2018-06-10T06:22:08.700Z,770
2018-06-10T06:23:08.697Z,1150
2018-06-10T06:24:08.491Z,1075
2018-06-10T06:25:08.498Z,1405
2018-06-10T06:26:21.515Z,1200
2018-06-10T06:27:08.798Z,820
2018-06-10T06:28:08.793Z,845
2018-06-10T06:29:08.760Z,845
2018-06-10T06:30:09.076Z,840
2018-06-10T06:31:09.042Z,1150
2018-06-10T06:32:08.834Z,1050
2018-06-10T06:33:08.833Z,825
2018-06-10T06:34:08.831Z,860
2018-06-10T06:35:08.881Z,930
2018-06-10T06:36:08.623Z,940
2018-06-10T06:37:08.888Z,1085
2018-06-10T06:38:09.123Z,1060
2018-06-10T06:39:08.879Z,1115
2018-06-10T06:40:08.666Z,1130
2018-06-10T06:41:08.919Z,1525
2018-06-10T06:42:08.962Z,1855
2018-06-10T06:43:09.226Z,1905
2018-06-10T06:44:09.221Z,1645
2018-06-10T06:45:08.944Z,1765
2018-06-10T06:46:09.000Z,1850
2018-06-10T06:47:08.824Z,1845
2018-06-10T06:48:09.041Z,1760
2018-06-10T06:49:09.266Z,1655
2018-06-10T06:50:09.046Z,1460
2018-06-10T06:51:08.763Z,1135
2018-06-10T06:52:09.306Z,1015
2018-06-10T06:53:09.072Z,865
2018-06-10T06:54:09.360Z,815
2018-06-10T06:55:09.392Z,785
2018-06-10T06:56:09.361Z,770
2018-06-10T06:57:09.127Z,775
2018-06-10T06:58:09.516Z,840
2018-06-10T06:59:08.880Z,805
2018-06-10T07:00:09.177Z,795
2018-06-10T07:01:09.412Z,805
2018-06-10T07:02:09.470Z,820
2018-06-10T07:03:08.947Z,895
2018-06-10T07:04:09.061Z,850
2018-06-10T07:05:09.231Z,815
2018-06-10T07:06:09.004Z,785
2018-06-10T07:07:09.484Z,770
2018-06-10T07:08:09.257Z,780
2018-06-10T07:09:09.549Z,805
2018-06-10T07:10:09.073Z,815
2018-06-10T07:11:08.816Z,840
2018-06-10T07:12:09.272Z,860
2018-06-10T07:13:09.329Z,880
2018-06-10T07:14:09.066Z,890
2018-06-10T07:15:09.643Z,895
2018-06-10T07:16:09.609Z,875
2018-06-10T07:17:09.453Z,875
2018-06-10T07:18:09.628Z,895
2018-06-10T07:19:09.426Z,900
2018-06-10T07:20:09.421Z,905
2018-06-10T07:21:09.675Z,910
2018-06-10T07:22:09.691Z,925
2018-06-10T07:23:09.469Z,910
2018-06-10T07:24:09.699Z,900
2018-06-10T07:25:09.461Z,915
2018-06-10T07:26:09.767Z,980
2018-06-10T07:27:09.512Z,1080
2018-06-10T07:28:09.298Z,1600
2018-06-10T07:29:09.260Z,1570
2018-06-10T07:30:09.508Z,1725
2018-06-10T07:31:09.579Z,1970
2018-06-10T07:32:09.540Z,1980
2018-06-10T07:33:09.831Z,2075
2018-06-10T07:34:09.810Z,2065
2018-06-10T07:35:09.859Z,1985
2018-06-10T07:36:09.811Z,1970
2018-06-10T07:37:09.471Z,1920
2018-06-10T07:38:22.581Z,2190
2018-06-10T07:39:09.651Z,2055
2018-06-10T07:40:09.397Z,2000
2018-06-10T07:41:09.397Z,1980
2018-06-10T07:42:09.917Z,2000
2018-06-10T07:43:09.665Z,2035
2018-06-10T07:44:09.954Z,2110
2018-06-10T07:45:09.963Z,2085
2018-06-10T07:46:09.796Z,2040
2018-06-10T07:47:09.719Z,1955
2018-06-10T07:48:09.511Z,2010
2018-06-10T07:49:10.030Z,1950
2018-06-10T07:50:10.023Z,1790
2018-06-10T07:51:10.098Z,1750
2018-06-10T07:52:10.054Z,1730
2018-06-10T07:53:09.603Z,1800
2018-06-10T07:54:09.837Z,1825
2018-06-10T07:55:09.385Z,1825
2018-06-10T07:56:09.643Z,1915
2018-06-10T07:57:09.655Z,1895
2018-06-10T07:58:10.171Z,1935
2018-06-10T07:59:10.170Z,2030
2018-06-10T08:00:10.417Z,2115
2018-06-10T08:01:09.733Z,2115
2018-06-10T08:02:09.533Z,2030
2018-06-10T08:03:10.251Z,1860
2018-06-10T08:04:10.067Z,1780
2018-06-10T08:05:10.025Z,1920
2018-06-10T08:06:10.345Z,1865
2018-06-10T08:07:10.063Z,1900
2018-06-10T08:08:10.390Z,1940
2018-06-10T08:09:10.138Z,2065
2018-06-10T08:10:09.918Z,2245
2018-06-10T08:11:10.148Z,2240
2018-06-10T08:12:10.350Z,2190
2018-06-10T08:13:09.942Z,2305
2018-06-10T08:14:09.726Z,2185
2018-06-10T08:15:10.501Z,2260
2018-06-10T08:16:10.040Z,2310
2018-06-10T08:17:10.534Z,2220
2018-06-10T08:18:10.330Z,2255
2018-06-10T08:19:10.549Z,2120
2018-06-10T08:20:10.343Z,2030
2018-06-10T08:21:10.343Z,1815
2018-06-10T08:22:10.141Z,1645
2018-06-10T08:23:10.611Z,1645
2018-06-10T08:24:10.698Z,1630
2018-06-10T08:25:10.419Z,1640
2018-06-10T08:26:10.724Z,1625
2018-06-10T08:27:10.452Z,1675
2018-06-10T08:28:10.223Z,1735
2018-06-10T08:29:10.498Z,1765
2018-06-10T08:30:10.782Z,1665
2018-06-10T08:31:10.506Z,1630
2018-06-10T08:32:11.046Z,1665
2018-06-10T08:33:10.565Z,1720
2018-06-10T08:34:10.868Z,1775
2018-06-10T08:35:10.584Z,1820
2018-06-10T08:36:10.381Z,1835
2018-06-10T08:37:10.350Z,1815
2018-06-10T08:38:10.686Z,1880
2018-06-10T08:39:10.905Z,1890
2018-06-10T08:40:10.448Z,2020
2018-06-10T08:41:10.705Z,2015
2018-06-10T08:42:10.710Z,2035
2018-06-10T08:43:10.775Z,2015
2018-06-10T08:44:10.654Z,2015
2018-06-10T08:45:10.775Z,1970
2018-06-10T08:46:11.039Z,1850
2018-06-10T08:47:11.033Z,1815
2018-06-10T08:48:10.836Z,1775
2018-06-10T08:49:10.595Z,1890
2018-06-10T08:50:10.636Z,1680
2018-06-10T08:51:10.852Z,1795
2018-06-10T08:52:10.387Z,1380
2018-06-10T08:53:10.873Z,1550
2018-06-10T08:54:10.938Z,1615
2018-06-10T08:55:10.668Z,1480
2018-06-10T08:56:10.983Z,1075
2018-06-10T08:57:11.116Z,880
2018-06-10T08:58:11.010Z,765
2018-06-10T08:59:10.724Z,760
2018-06-10T09:00:10.753Z,755
2018-06-10T09:01:10.772Z,760
2018-06-10T09:02:10.816Z,740
2018-06-10T09:03:10.845Z,725
2018-06-10T09:04:11.111Z,730
2018-06-10T09:05:10.836Z,725
2018-06-10T09:06:11.387Z,730
2018-06-10T09:07:10.595Z,725
2018-06-10T09:08:10.890Z,715
2018-06-10T09:09:10.869Z,700
2018-06-10T09:10:11.191Z,675
2018-06-10T09:11:10.640Z,655
2018-06-10T09:12:10.712Z,660
2018-06-10T09:13:11.455Z,650
2018-06-10T09:14:11.242Z,650
2018-06-10T09:15:10.941Z,650
2018-06-10T09:16:11.219Z,650
2018-06-10T09:17:11.240Z,650
2018-06-10T09:18:11.535Z,635
2018-06-10T09:19:11.546Z,630
2018-06-10T09:20:11.025Z,635
2018-06-10T09:21:11.040Z,625
2018-06-10T09:22:11.038Z,615
2018-06-10T09:23:11.075Z,605
2018-06-10T09:24:10.822Z,605
2018-06-10T09:25:11.111Z,595
2018-06-10T09:26:11.581Z,585
2018-06-10T09:27:11.134Z,580
2018-06-10T09:28:11.590Z,580
2018-06-10T09:29:11.153Z,580
2018-06-10T09:30:10.908Z,575
2018-06-10T09:31:11.691Z,580
2018-06-10T09:32:11.641Z,585
2018-06-10T09:33:11.406Z,580
2018-06-10T09:34:11.711Z,580
2018-06-10T09:35:11.206Z,580
2018-06-10T09:36:11.433Z,575
2018-06-10T09:37:11.453Z,565
2018-06-10T09:38:11.689Z,565
2018-06-10T09:39:11.754Z,570
2018-06-10T09:40:11.217Z,575
2018-06-10T09:41:11.516Z,560
2018-06-10T09:42:12.058Z,565
2018-06-10T09:43:11.791Z,575
2018-06-10T09:44:11.741Z,575
2018-06-10T09:45:11.529Z,585
2018-06-10T09:46:11.804Z,590
2018-06-10T09:47:11.827Z,595
2018-06-10T09:48:11.567Z,600
2018-06-10T09:49:11.841Z,605
2018-06-10T09:50:11.085Z,610
2018-06-10T09:51:11.821Z,610
2018-06-10T09:52:11.606Z,615
2018-06-10T09:53:11.611Z,615
2018-06-10T09:54:11.383Z,615
2018-06-10T09:55:12.023Z,610
2018-06-10T09:56:11.648Z,610
2018-06-10T09:57:11.126Z,610
2018-06-10T09:58:11.637Z,615
2018-06-10T09:59:11.418Z,615
2018-06-10T10:00:11.655Z,615
2018-06-10T10:01:11.721Z,615
2018-06-10T10:02:11.670Z,615
2018-06-10T10:03:11.470Z,615
2018-06-10T10:04:11.703Z,610
2018-06-10T10:05:11.979Z,610
2018-06-10T10:06:11.447Z,600
2018-06-10T10:07:11.446Z,600
2018-06-10T10:08:12.002Z,600
2018-06-10T10:09:12.014Z,600
2018-06-10T10:10:11.987Z,605
2018-06-10T10:11:11.795Z,610
2018-06-10T10:12:11.761Z,610
2018-06-10T10:13:11.301Z,610
2018-06-10T10:14:11.770Z,615
2018-06-10T10:15:12.084Z,625
2018-06-10T10:16:11.779Z,640
2018-06-10T10:17:11.812Z,650
2018-06-10T10:18:12.062Z,655
2018-06-10T10:19:12.124Z,665
2018-06-10T10:20:11.846Z,675
2018-06-10T10:21:11.869Z,685
2018-06-10T10:22:11.590Z,690
2018-06-10T10:23:11.900Z,705
2018-06-10T10:24:12.163Z,720
2018-06-10T10:25:12.150Z,740
2018-06-10T10:26:12.118Z,755
2018-06-10T10:27:12.191Z,775
2018-06-10T10:28:11.905Z,775
2018-06-10T10:29:12.207Z,775
2018-06-10T10:30:11.938Z,765
2018-06-10T10:31:11.968Z,745
2018-06-10T10:32:11.918Z,715
2018-06-10T10:33:12.221Z,695
2018-06-10T10:34:12.201Z,685
2018-06-10T10:35:12.269Z,670
2018-06-10T10:36:12.260Z,655
2018-06-10T10:37:12.019Z,630
2018-06-10T10:38:11.728Z,610
2018-06-10T10:39:11.989Z,595
2018-06-10T10:40:12.311Z,580
2018-06-10T10:41:12.042Z,565
2018-06-10T10:42:12.322Z,565
2018-06-10T10:43:12.497Z,565
2018-06-10T10:44:12.087Z,570
2018-06-10T10:45:12.038Z,570
2018-06-10T10:46:11.848Z,555
2018-06-10T10:47:12.321Z,560
2018-06-10T10:48:12.384Z,555
2018-06-10T10:49:12.368Z,550
2018-06-10T10:50:12.356Z,555
2018-06-10T10:51:11.901Z,555
2018-06-10T10:52:12.418Z,560
2018-06-10T10:53:11.894Z,570
2018-06-10T10:54:12.135Z,570
2018-06-10T10:55:12.388Z,560
2018-06-10T10:56:12.047Z,555
2018-06-10T10:57:12.478Z,525
2018-06-10T10:58:12.242Z,500
2018-06-10T10:59:12.427Z,485
2018-06-10T11:00:12.231Z,465
2018-06-10T11:01:12.439Z,460
2018-06-10T11:02:12.254Z,450
2018-06-10T11:03:12.209Z,450
2018-06-10T11:04:12.274Z,440
2018-06-10T11:05:12.246Z,435
2018-06-10T11:06:12.280Z,430
2018-06-10T11:07:12.521Z,430
2018-06-10T11:08:12.502Z,440
2018-06-10T11:09:12.295Z,425
2018-06-10T11:10:12.327Z,420
2018-06-10T11:11:12.340Z,415
2018-06-10T11:12:12.309Z,400
2018-06-10T11:13:12.086Z,395
2018-06-10T11:14:12.813Z,385
2018-06-10T11:15:12.350Z,375
2018-06-10T11:16:12.631Z,370
2018-06-10T11:17:12.355Z,360
2018-06-10T11:18:12.646Z,355
2018-06-10T11:19:12.362Z,350
2018-06-10T11:20:12.437Z,345
2018-06-10T11:21:12.644Z,315
2018-06-10T11:22:12.677Z,285
2018-06-10T11:23:12.386Z,270
2018-06-10T11:24:12.180Z,255
2018-06-10T11:25:12.438Z,250
2018-06-10T11:26:12.521Z,245
2018-06-10T11:27:13.273Z,245
2018-06-10T11:28:12.183Z,250
2018-06-10T11:29:12.464Z,260
2018-06-10T11:30:12.467Z,270
2018-06-10T11:31:12.509Z,280
2018-06-10T11:32:12.758Z,290
2018-06-10T11:33:12.265Z,300
2018-06-10T11:34:12.731Z,315
2018-06-10T11:35:12.795Z,330
2018-06-10T11:36:13.033Z,330
2018-06-10T11:37:12.782Z,330
2018-06-10T11:38:12.258Z,330
2018-06-10T11:39:12.837Z,325
2018-06-10T11:40:12.870Z,320
2018-06-10T11:41:12.941Z,315
2018-06-10T11:42:12.675Z,310
2018-06-10T11:43:12.346Z,310
2018-06-10T11:44:12.575Z,305
2018-06-10T11:45:12.582Z,305
2018-06-10T11:46:12.820Z,300
2018-06-10T11:47:12.367Z,300
2018-06-10T11:48:12.855Z,295
2018-06-10T11:49:12.893Z,295
2018-06-10T11:50:12.598Z,285
2018-06-10T11:51:12.642Z,280
2018-06-10T11:52:13.654Z,275
2018-06-10T11:53:12.881Z,270
2018-06-10T11:54:12.162Z,265
2018-06-10T11:55:12.636Z,265
2018-06-10T11:56:12.904Z,265
2018-06-10T11:57:12.934Z,270
2018-06-10T11:58:12.250Z,275
2018-06-10T11:59:12.733Z,285
2018-06-10T12:00:12.417Z,290
2018-06-10T12:01:12.467Z,295
2018-06-10T12:02:12.701Z,305
2018-06-10T12:03:12.993Z,315
2018-06-10T12:04:12.948Z,325
2018-06-10T12:05:13.092Z,330
2018-06-10T12:06:12.737Z,335
2018-06-10T12:07:12.958Z,340
2018-06-10T12:08:12.775Z,345
2018-06-10T12:09:12.488Z,340
2018-06-10T12:10:12.516Z,335
2018-06-10T12:11:12.979Z,335
2018-06-10T12:12:12.499Z,335
2018-06-10T12:13:13.066Z,330
2018-06-10T12:14:13.054Z,330
2018-06-10T12:15:13.072Z,330
2018-06-10T12:16:12.783Z,330
2018-06-10T12:17:12.787Z,330
2018-06-10T12:18:12.801Z,330
2018-06-10T12:19:13.182Z,330
2018-06-10T12:20:13.056Z,330
2018-06-10T12:21:12.583Z,330
2018-06-10T12:22:13.108Z,335
2018-06-10T12:23:13.106Z,340
2018-06-10T12:24:13.081Z,340
2018-06-10T12:25:12.860Z,345
2018-06-10T12:26:12.852Z,350
2018-06-10T12:27:12.885Z,365
2018-06-10T12:28:13.116Z,385
2018-06-10T12:29:12.905Z,400
2018-06-10T12:30:12.851Z,415
2018-06-10T12:31:12.911Z,410
2018-06-10T12:32:12.870Z,395
2018-06-10T12:33:12.880Z,345
2018-06-10T12:34:13.143Z,295
2018-06-10T12:35:13.100Z,260
2018-06-10T12:36:13.157Z,240
2018-06-10T12:37:12.694Z,240
2018-06-10T12:38:13.373Z,245
2018-06-10T12:39:12.949Z,250
2018-06-10T12:40:12.932Z,260
2018-06-10T12:41:12.677Z,265
2018-06-10T12:42:12.689Z,265
2018-06-10T12:43:13.238Z,270
2018-06-10T12:44:13.242Z,275
2018-06-10T12:45:13.202Z,275
2018-06-10T12:46:13.205Z,275
2018-06-10T12:47:12.926Z,275
2018-06-10T12:48:12.973Z,275
2018-06-10T12:49:13.329Z,275
2018-06-10T12:50:13.011Z,275
2018-06-10T12:51:13.201Z,275
2018-06-10T12:52:13.265Z,280
2018-06-10T12:53:13.217Z,285
2018-06-10T12:54:13.004Z,290
2018-06-10T12:55:12.733Z,300
2018-06-10T12:56:13.024Z,310
2018-06-10T12:57:13.286Z,315
2018-06-10T12:58:12.986Z,320
2018-06-10T12:59:13.077Z,325
2018-06-10T13:00:13.025Z,335
2018-06-10T13:01:13.038Z,340
2018-06-10T13:02:12.748Z,350
2018-06-10T13:03:13.251Z,350
2018-06-10T13:04:13.292Z,360
2018-06-10T13:05:13.283Z,375
2018-06-10T13:06:13.063Z,400
2018-06-10T13:07:12.759Z,415
2018-06-10T13:08:13.328Z,435
2018-06-10T13:09:12.502Z,460
2018-06-10T13:10:13.335Z,490
2018-06-10T13:11:12.778Z,535
2018-06-10T13:12:13.286Z,570
2018-06-10T13:13:13.329Z,605
2018-06-10T13:14:12.816Z,625
2018-06-10T13:15:13.043Z,655
2018-06-10T13:16:12.821Z,675
2018-06-10T13:17:13.357Z,680
2018-06-10T13:18:13.085Z,665
2018-06-10T13:19:13.093Z,645
2018-06-10T13:20:12.816Z,625
2018-06-10T13:21:13.361Z,605
2018-06-10T13:22:13.137Z,570
2018-06-10T13:23:13.316Z,540
2018-06-10T13:24:13.414Z,505
2018-06-10T13:25:13.087Z,470
2018-06-10T13:26:13.405Z,445
2018-06-10T13:27:13.094Z,425
2018-06-10T13:28:13.168Z,415
2018-06-10T13:29:13.645Z,410
2018-06-10T13:30:13.429Z,405
2018-06-10T13:31:13.376Z,395
2018-06-10T13:32:13.115Z,400
2018-06-10T13:33:13.144Z,405
2018-06-10T13:34:13.155Z,405
2018-06-10T13:35:13.189Z,400
2018-06-10T13:36:12.893Z,390
2018-06-10T13:37:13.413Z,380
2018-06-10T13:38:12.894Z,385
2018-06-10T13:39:13.483Z,395
2018-06-10T13:40:13.160Z,400
2018-06-10T13:41:13.470Z,400
2018-06-10T13:42:13.427Z,415
2018-06-10T13:43:13.224Z,435
2018-06-10T13:44:12.928Z,445
2018-06-10T13:45:12.942Z,435
2018-06-10T13:46:13.377Z,415
2018-06-10T13:47:13.519Z,400
2018-06-10T13:48:13.495Z,385
2018-06-10T13:49:13.216Z,360
2018-06-10T13:50:13.238Z,320
2018-06-10T13:51:13.256Z,280
2018-06-10T13:54:13.411Z,195
2018-06-10T13:55:13.240Z,180
2018-06-10T13:58:14.822Z,165
2018-06-10T14:02:13.587Z,195
2018-06-10T14:03:15.754Z,210
2018-06-10T14:04:13.021Z,225